Kashi Airport
ZWSH : now visible

Airfield :











YOU CAN JOIN US ON...

 
LOGIN :

Register | Disclaimer

   EN    FR    IT 

 









Legend :    VFR   Marginal VFR   IFR   Intensive IFR   Very Intensive IFR
Visi :
Ceiling :
>= 8 km
>= 3000ft
5 to 8 km
1000 to 3000 ft
1500m to 5 km
500 to 1000 ft
800 to 1500m
200 to 500 ft
< 800m
< 200 ft
Symbols :   Thunderstorms  Fog  Heavy snow  Heavy precipitations  Wind > 20 kt






- Airport Elevation : 4529 ft
- IATA code : KHG


ZWSH - Kashi

CURRENT METAR :
  • 242300Z 26002MPS 9999 FEW040 20/14 Q1007 NOSIG

EXPIRED METARs :
  • 242200Z 27003MPS 9999 FEW040 21/14 Q1007 NOSIG
  • 242100Z 30004MPS 9999 FEW040 21/13 Q1007 NOSIG
  • 242000Z 31003MPS 9999 FEW040 21/14 Q1007 NOSIG
  • 241900Z 32002MPS 9999 SCT040 21/13 Q1008 NOSIG

TAF TAF ZWSH
Valid from the 24 at 18:00 until the 25 at 18:00 UTC


241508Z 2418/2518 33005MPS 6000 FEW040CB FEW040 TX31/2509Z TN21/2500Z
BECMG 2502/2503 08004MPS
BECMG 2511/2512 32005MPS
ZWUQ FIR / Asia



MET'MAP, your aeronautical weather chart ! - Copyright ORBIFLY December 2007 - Disclaimer

ORBIFLY MET'MAP TEAM :

Programming & Development : Alexandra Zaïnal
Original concept : Baudouin d'Aumeries
Technical & hardware support : Manuel Goepfert
Assistance : Marc-Olivier Méhu




SOURCES & CREDITS :

   NOAA       Earth
Advisory